Saturday, January 20, 2018, 10:03 AM EST
Back to Local

KSWF, Newburgh / Stewart

Location: New Windsor, NY, United States Lat: 41.5
Local Time: 10:03 AM EST (15:03 GMT) Lon: -74.1
Time Zone: US/Eastern Elev: 492 ft

Show me the last for .
Show Coded

Time T Td Feel RH Dir Speed Gust Alt SLP Vis Weather Sky Remarks
2018-01-20 09:45 39 27 31 60 250° 14 - 29.85 - 20 BKN100 None
2018-01-20 08:45 37 25 33 60 250° 6 - 29.84 - 20 BKN100 None
2018-01-20 07:45 36 23 31 59 260° 6 - 29.82 - 20 SCT120 None
2018-01-20 06:45 34 23 29 64 260° 6 - 29.82 - 10 FEW120 None
2018-01-20 05:45 34 23 27 64 240° 8 - 29.81 - 10 FEW120 None
2018-01-20 04:45 34 23 27 64 260° 8 - 29.82 - 10 FEW120 None
2018-01-20 03:45 34 23 23 64 290° 12 17 29.84 - 10 FEW120 None
2018-01-20 01:45 34 21 27 59 290° 8 - 29.86 - 10 FEW120 None
2018-01-20 00:45 30 21 23 68 290° 8 - 29.88 - 10 FEW120 None
2018-01-19 23:45 28 19 22 68 290° 6 - 29.90 - 10 FEW120 None
2018-01-19 22:45 25 19 - 79 - Calm - 29.92 - 10 CLR None
2018-01-19 21:45 27 19 - 73 - Calm - 29.93 - 10 CLR None
2018-01-19 20:45 25 18 - 73 - Calm - 29.95 - 10 CLR None
2018-01-19 19:45 23 18 - 79 - Calm - 29.95 - 10 CLR None
2018-01-19 18:45 21 16 - 79 - Calm - 29.95 - 10 CLR None
2018-01-19 17:45 30 19 - 63 - Calm - 29.95 - 10 CLR None
2018-01-19 16:45 32 19 - 59 - Calm - 29.95 - 10 SCT120 None
2018-01-19 15:45 34 19 28 55 260° 7 - 29.95 - 20 SCT120 None
2018-01-19 14:45 34 18 28 50 260° 7 - 29.95 - 20 SCT120 None
2018-01-19 13:45 32 19 26 59 250° 7 - 29.96 - 20 SCT120 None
2018-01-19 12:45 30 19 21 63 280° 12 - 29.98 - 20 SCT120 None
2018-01-19 11:45 27 16 19 63 290° 7 - 30.01 - 15 BKN100 None
2018-01-19 10:45 23 16 16 73 230° 6 - 30.03 - 15 BKN100 None

Support USWX by starting your Amazon purchase here.